Time;durP1;ratioP1;P1;durP2;ratioP2;P2;SDS_P1;SDS_P2;PMS_P1;PMS_P2;Temp;Humidity;BMP_temperature;BMP_pressure;BME280_temperature;BME280_humidity;BME280_pressure;Samples;Min_cycle;Max_cycle;Signal;HPM_P1;HPM_P2
2022/09/11 00:00:36;;;;;;;;;;;23.60;59.60;;;;;;5017765;28;20016;-77
2022/09/11 00:03:03;;;;;;;;;;;23.70;59.80;;;;;;5017667;28;19932;-76
2022/09/11 00:05:30;;;;;;;;;;;23.60;59.90;;;;;;5017375;28;19932;-77
2022/09/11 00:07:58;;;;;;;;;;;23.70;60.10;;;;;;5017709;28;19976;-77
2022/09/11 00:10:27;;;;;;;;;;;23.70;60.20;;;;;;5017328;28;19984;-78
2022/09/11 00:12:53;;;;;;;;;;;23.70;60.40;;;;;;5017429;28;20009;-76
2022/09/11 00:15:20;;;;;;;;;;;23.70;61.20;;;;;;5017515;28;19926;-76
2022/09/11 06:41:54;;;;;;;;;;;23.50;73.70;;;;;;5890284;22;20384;-79
2022/09/11 06:44:21;;;;;;;;;;;23.50;73.80;;;;;;5017405;28;20012;-80
2022/09/11 06:46:47;;;;;;;;;;;23.50;73.90;;;;;;5017082;28;20372;-80
2022/09/11 06:49:15;;;;;;;;;;;23.50;74.00;;;;;;5016275;28;20422;-79
2022/09/11 06:51:41;;;;;;;;;;;23.50;74.10;;;;;;5015932;28;20396;-78
2022/09/11 06:54:08;;;;;;;;;;;23.50;74.10;;;;;;5015833;28;20024;-78
2022/09/11 06:56:35;;;;;;;;;;;23.50;74.10;;;;;;5016363;28;19925;-80
2022/09/11 06:59:06;;;;;;;;;;;23.50;74.20;;;;;;5016333;28;20396;-80
2022/09/11 07:01:32;;;;;;;;;;;23.20;74.00;;;;;;5015282;28;19933;-80
2022/09/11 07:04:01;;;;;;;;;;;23.50;74.40;;;;;;5018341;28;19948;-81
2022/09/11 07:06:29;;;;;;;;;;;23.50;74.50;;;;;;5021096;28;20400;-81
2022/09/11 07:08:59;;;;;;;;;;;23.50;74.50;;;;;;5020492;28;19963;-80
2022/09/11 07:11:26;;;;;;;;;;;23.50;74.60;;;;;;5018183;28;19925;-80
2022/09/11 07:13:53;;;;;;;;;;;23.50;74.60;;;;;;5015494;28;19932;-81
2022/09/11 07:16:21;;;;;;;;;;;23.50;74.70;;;;;;5015634;28;20400;-81
2022/09/11 07:18:48;;;;;;;;;;;23.50;74.80;;;;;;5017236;28;19925;-80
2022/09/11 07:21:16;;;;;;;;;;;23.50;74.90;;;;;;5016813;28;20016;-81
2022/09/11 07:23:46;;;;;;;;;;;23.50;75.00;;;;;;5018535;28;19930;-81
2022/09/11 07:26:13;;;;;;;;;;;23.50;75.00;;;;;;5016456;28;20348;-81
2022/09/11 07:28:40;;;;;;;;;;;23.50;75.00;;;;;;5015419;28;19926;-81
2022/09/11 07:31:09;;;;;;;;;;;23.50;75.10;;;;;;5015635;28;19933;-81
2022/09/11 07:33:37;;;;;;;;;;;23.50;75.20;;;;;;5015738;28;19933;-81
2022/09/11 07:36:10;;;;;;;;;;;23.50;75.20;;;;;;5016486;28;19925;-81
2022/09/11 07:38:38;;;;;;;;;;;23.50;75.30;;;;;;5017537;28;19949;-81
2022/09/11 07:41:04;;;;;;;;;;;23.50;75.40;;;;;;5016459;28;20019;-81
2022/09/11 07:43:31;;;;;;;;;;;23.50;75.40;;;;;;5016595;28;20004;-81
2022/09/11 07:45:58;;;;;;;;;;;23.60;75.60;;;;;;5017038;28;19971;-81
2022/09/11 07:48:24;;;;;;;;;;;23.60;75.60;;;;;;5016932;28;19932;-82
2022/09/11 07:51:01;;;;;;;;;;;23.50;75.50;;;;;;5016654;28;19976;-81
2022/09/11 07:53:28;;;;;;;;;;;23.50;75.50;;;;;;5022174;28;20288;-82
2022/09/11 07:55:54;;;;;;;;;;;23.50;75.40;;;;;;5024009;28;19947;-81
2022/09/11 07:58:21;;;;;;;;;;;23.50;75.30;;;;;;5021355;28;19925;-81
2022/09/11 08:00:48;;;;;;;;;;;23.50;75.20;;;;;;5021357;28;20348;-85
2022/09/11 08:03:14;;;;;;;;;;;23.50;75.10;;;;;;5018207;28;20012;-84
2022/09/11 08:05:41;;;;;;;;;;;23.50;75.10;;;;;;5020737;28;19933;-83
2022/09/11 08:08:09;;;;;;;;;;;23.50;75.00;;;;;;5022835;28;20368;-77
2022/09/11 08:10:37;;;;;;;;;;;23.50;75.00;;;;;;5021854;28;20016;-79
2022/09/11 08:13:04;;;;;;;;;;;23.50;74.90;;;;;;5022176;28;19925;-79
2022/09/11 08:15:31;;;;;;;;;;;23.50;74.90;;;;;;5021324;28;20296;-79
2022/09/11 08:17:58;;;;;;;;;;;23.50;74.80;;;;;;5021327;28;20012;-79
2022/09/11 08:20:24;;;;;;;;;;;23.50;74.70;;;;;;5020912;28;19957;-79
2022/09/11 08:22:51;;;;;;;;;;;23.50;74.60;;;;;;5020575;28;19968;-79
2022/09/11 08:25:19;;;;;;;;;;;23.50;74.50;;;;;;5020761;28;19925;-79
2022/09/11 08:27:46;;;;;;;;;;;23.50;74.50;;;;;;5020699;28;20329;-79
2022/09/11 08:30:13;;;;;;;;;;;23.50;74.40;;;;;;5021061;28;19979;-80
2022/09/11 08:32:40;;;;;;;;;;;23.50;74.30;;;;;;5020911;28;19925;-79
2022/09/11 08:35:06;;;;;;;;;;;23.50;74.20;;;;;;5021373;28;19926;-78
2022/09/11 08:37:34;;;;;;;;;;;23.50;74.20;;;;;;5024369;28;20016;-78
2022/09/11 08:40:01;;;;;;;;;;;23.50;74.20;;;;;;5021647;28;20455;-79
2022/09/11 08:42:34;;;;;;;;;;;23.50;74.10;;;;;;5024866;28;19925;-78
2022/09/11 08:45:02;;;;;;;;;;;23.50;74.10;;;;;;5023829;28;19926;-79
2022/09/11 08:47:33;;;;;;;;;;;23.50;74.10;;;;;;5025372;28;19926;-79
2022/09/11 08:50:03;;;;;;;;;;;23.60;74.10;;;;;;5025530;28;19961;-79
2022/09/11 08:52:31;;;;;;;;;;;23.60;74.10;;;;;;5024936;28;20023;-80
2022/09/11 08:54:59;;;;;;;;;;;23.50;74.00;;;;;;5029109;28;19926;-80
2022/09/11 08:57:32;;;;;;;;;;;23.60;74.00;;;;;;5030151;28;19925;-81
2022/09/11 09:00:06;;;;;;;;;;;23.60;73.90;;;;;;5024327;28;19925;-79
2022/09/11 09:02:46;;;;;;;;;;;23.60;73.90;;;;;;5025853;28;19988;-79
2022/09/11 09:05:18;;;;;;;;;;;23.60;73.90;;;;;;5026432;28;19925;-83
2022/09/11 09:07:53;;;;;;;;;;;23.60;73.90;;;;;;5025698;28;19933;-83
2022/09/11 09:10:30;;;;;;;;;;;23.60;73.80;;;;;;5024061;28;19941;-83
2022/09/11 09:13:02;;;;;;;;;;;23.50;73.70;;;;;;5022748;28;19925;-81
2022/09/11 09:15:39;;;;;;;;;;;23.60;73.80;;;;;;5022671;28;20219;-83
2022/09/11 09:18:11;;;;;;;;;;;23.60;73.70;;;;;;5024541;28;19933;-83
2022/09/11 09:20:42;;;;;;;;;;;23.60;73.70;;;;;;5026289;28;19926;-84
2022/09/11 09:23:21;;;;;;;;;;;23.60;73.60;;;;;;5021175;28;19925;-83
2022/09/11 09:25:51;;;;;;;;;;;23.60;73.60;;;;;;5018871;28;19926;-82
2022/09/11 09:28:19;;;;;;;;;;;23.60;73.60;;;;;;5021184;28;20289;-83
2022/09/11 09:30:50;;;;;;;;;;;23.60;73.60;;;;;;5019277;28;20013;-84
2022/09/11 09:33:26;;;;;;;;;;;23.60;73.50;;;;;;5019403;28;19984;-82
2022/09/11 09:35:53;;;;;;;;;;;23.60;73.50;;;;;;5020755;28;20016;-83
2022/09/11 09:38:21;;;;;;;;;;;23.60;73.50;;;;;;5018596;28;19969;-85
2022/09/11 09:40:54;;;;;;;;;;;23.70;73.60;;;;;;5015953;28;19925;-83
2022/09/11 09:43:32;;;;;;;;;;;23.60;73.70;;;;;;5015753;28;20009;-84
2022/09/11 09:46:12;;;;;;;;;;;23.70;73.60;;;;;;5016159;28;19925;-84
2022/09/11 09:48:39;;;;;;;;;;;23.70;73.60;;;;;;5015759;28;19925;-83
2022/09/11 09:51:13;;;;;;;;;;;23.70;73.60;;;;;;5015566;28;19925;-83
2022/09/11 09:53:41;;;;;;;;;;;23.70;73.60;;;;;;5016432;28;20355;-81
2022/09/11 09:56:15;;;;;;;;;;;23.70;73.50;;;;;;5016103;28;19941;-81
2022/09/11 09:58:51;;;;;;;;;;;23.70;73.50;;;;;;5016348;28;19929;-81
2022/09/11 10:01:33;;;;;;;;;;;23.70;73.50;;;;;;5015590;28;19926;-81
2022/09/11 10:04:13;;;;;;;;;;;23.70;73.50;;;;;;5003349;28;20000;-81
2022/09/11 10:06:40;;;;;;;;;;;23.70;73.50;;;;;;5016666;28;19929;-81
2022/09/11 10:09:17;;;;;;;;;;;23.70;73.40;;;;;;5016430;28;20055;-81
2022/09/11 10:11:45;;;;;;;;;;;23.70;73.40;;;;;;5016855;28;19976;-82
2022/09/11 10:14:18;;;;;;;;;;;23.70;73.40;;;;;;5017669;28;19972;-82
2022/09/11 10:16:47;;;;;;;;;;;23.70;73.40;;;;;;5020142;28;19976;-83
2022/09/11 10:19:33;;;;;;;;;;;23.70;74.20;;;;;;5017951;28;19937;-80
2022/09/11 10:22:20;;;;;;;;;;;23.70;73.40;;;;;;5017074;28;19972;-79
2022/09/11 10:24:52;;;;;;;;;;;23.70;73.50;;;;;;5016800;28;20016;-79
2022/09/11 10:27:18;;;;;;;;;;;23.70;73.40;;;;;;5016761;28;19933;-79
2022/09/11 10:29:49;;;;;;;;;;;23.70;73.40;;;;;;5017466;28;20012;-79
2022/09/11 10:32:16;;;;;;;;;;;23.70;73.40;;;;;;5018488;28;19925;-78
2022/09/11 10:34:45;;;;;;;;;;;23.70;73.40;;;;;;5017926;28;20460;-78
2022/09/11 10:37:22;;;;;;;;;;;23.70;74.10;;;;;;5017815;28;19925;-77
2022/09/11 10:39:49;;;;;;;;;;;23.80;73.40;;;;;;5018730;28;19976;-78
2022/09/11 10:42:17;;;;;;;;;;;23.80;73.40;;;;;;5018840;28;20019;-79
2022/09/11 10:44:44;;;;;;;;;;;23.80;73.40;;;;;;5017538;28;19973;-78
2022/09/11 10:47:14;;;;;;;;;;;23.80;73.40;;;;;;5018550;28;19926;-79
2022/09/11 10:49:42;;;;;;;;;;;23.80;73.30;;;;;;5019094;28;20353;-80
2022/09/11 10:52:18;;;;;;;;;;;23.80;73.30;;;;;;5018177;28;19926;-80
2022/09/11 10:54:57;;;;;;;;;;;23.80;73.40;;;;;;5019294;28;19933;-78
2022/09/11 10:57:26;;;;;;;;;;;23.80;73.50;;;;;;5017218;28;19976;-79
2022/09/11 11:00:00;;;;;;;;;;;23.80;73.60;;;;;;5018795;28;19984;-79
2022/09/11 11:02:29;;;;;;;;;;;23.80;73.80;;;;;;5017285;28;19925;-79
2022/09/11 11:04:56;;;;;;;;;;;23.90;74.40;;;;;;5020707;28;19933;-79
2022/09/11 11:07:31;;;;;;;;;;;23.90;74.90;;;;;;5015743;28;19929;-78
2022/09/11 11:10:02;;;;;;;;;;;24.00;75.40;;;;;;5014950;28;19925;-78
2022/09/11 11:12:37;;;;;;;;;;;24.00;75.80;;;;;;5014948;28;19925;-80
2022/09/11 11:15:20;;;;;;;;;;;24.00;76.20;;;;;;5018185;28;19933;-79
2022/09/11 11:17:50;;;;;;;;;;;24.00;76.70;;;;;;5018256;28;19976;-79
2022/09/11 11:20:25;;;;;;;;;;;24.10;77.20;;;;;;5019826;28;19926;-79
2022/09/11 11:23:10;;;;;;;;;;;24.10;77.80;;;;;;5018317;28;20404;-80
2022/09/11 11:25:43;;;;;;;;;;;24.10;78.10;;;;;;5007690;28;20381;-80
2022/09/11 11:28:19;;;;;;;;;;;24.20;78.50;;;;;;5018894;28;19988;-79
2022/09/11 11:30:51;;;;;;;;;;;24.20;79.10;;;;;;5020048;28;19977;-79
2022/09/11 11:33:25;;;;;;;;;;;24.10;79.40;;;;;;5021310;28;20445;-79
2022/09/11 11:35:56;;;;;;;;;;;24.10;79.70;;;;;;5021362;28;20305;-79
2022/09/11 11:38:27;;;;;;;;;;;24.20;80.20;;;;;;5021780;28;19929;-79
2022/09/11 11:40:58;;;;;;;;;;;24.20;80.50;;;;;;5020973;28;19961;-79
2022/09/11 11:43:27;;;;;;;;;;;24.10;80.70;;;;;;5021684;28;19932;-79
2022/09/11 11:45:55;;;;;;;;;;;24.10;81.00;;;;;;5021609;28;19926;-79
2022/09/11 11:48:25;;;;;;;;;;;24.10;81.30;;;;;;5021188;28;19926;-79
2022/09/11 11:50:54;;;;;;;;;;;24.10;81.40;;;;;;5021194;28;19925;-79
2022/09/11 11:53:23;;;;;;;;;;;24.10;81.60;;;;;;5021157;28;20429;-80
2022/09/11 11:55:54;;;;;;;;;;;24.20;81.80;;;;;;5017999;28;20259;-80
2022/09/11 11:58:25;;;;;;;;;;;24.10;81.80;;;;;;5018773;28;20440;-80
2022/09/11 12:00:56;;;;;;;;;;;24.10;82.00;;;;;;5017832;28;20292;-81
2022/09/11 12:03:26;;;;;;;;;;;24.10;82.10;;;;;;5021256;28;19936;-80
2022/09/11 12:05:53;;;;;;;;;;;24.10;82.20;;;;;;5019700;28;20020;-80
2022/09/11 12:08:22;;;;;;;;;;;24.10;82.40;;;;;;5019840;28;20012;-79
2022/09/11 12:10:55;;;;;;;;;;;24.10;82.60;;;;;;5018999;28;20370;-80
2022/09/11 12:13:26;;;;;;;;;;;24.10;82.90;;;;;;5017836;28;19925;-79
2022/09/11 12:16:03;;;;;;;;;;;24.10;83.00;;;;;;5017180;28;19925;-79
2022/09/11 12:18:30;;;;;;;;;;;24.10;83.10;;;;;;5019516;28;19932;-80
2022/09/11 12:21:13;;;;;;;;;;;24.10;83.30;;;;;;5018917;28;19926;-79
2022/09/11 12:23:54;;;;;;;;;;;24.10;83.40;;;;;;5017825;28;19925;-79
2022/09/11 12:26:22;;;;;;;;;;;24.10;83.60;;;;;;5016176;28;20024;-79
2022/09/11 12:29:10;;;;;;;;;;;24.10;83.90;;;;;;5016880;28;19926;-79
2022/09/11 12:31:52;;;;;;;;;;;24.10;83.90;;;;;;5017086;28;19948;-78
2022/09/11 12:34:20;;;;;;;;;;;24.10;83.90;;;;;;5018274;28;20021;-78
2022/09/11 12:36:52;;;;;;;;;;;24.10;83.90;;;;;;5019645;28;19993;-78
2022/09/11 12:39:24;;;;;;;;;;;24.10;83.90;;;;;;5018184;28;19976;-78
2022/09/11 12:41:51;;;;;;;;;;;24.10;83.90;;;;;;5017688;28;19933;-76
2022/09/11 12:44:30;;;;;;;;;;;24.10;83.90;;;;;;5020235;28;19925;-74
2022/09/11 12:47:10;;;;;;;;;;;24.10;83.90;;;;;;5020988;28;19972;-74
2022/09/11 12:49:37;;;;;;;;;;;24.10;83.90;;;;;;5022466;28;19932;-74
2022/09/11 12:52:06;;;;;;;;;;;24.10;83.90;;;;;;5020045;28;19964;-77
2022/09/11 12:54:38;;;;;;;;;;;24.00;83.50;;;;;;5018887;28;19930;-78
2022/09/11 12:57:07;;;;;;;;;;;24.00;83.20;;;;;;5023329;28;19933;-78
2022/09/11 12:59:36;;;;;;;;;;;24.00;83.10;;;;;;5020823;28;20024;-83
2022/09/11 13:02:04;;;;;;;;;;;24.00;83.00;;;;;;5019622;28;19929;-82
2022/09/11 13:04:32;;;;;;;;;;;24.00;82.80;;;;;;5021659;28;20016;-80
2022/09/11 13:07:01;;;;;;;;;;;24.00;82.70;;;;;;5018103;28;20385;-76
2022/09/11 13:09:29;;;;;;;;;;;24.00;82.50;;;;;;5016467;28;19925;-75
2022/09/11 13:11:56;;;;;;;;;;;24.00;82.20;;;;;;5016368;28;20004;-77
2022/09/11 13:14:41;;;;;;;;;;;24.00;82.00;;;;;;5017862;28;19925;-78
2022/09/11 13:17:14;;;;;;;;;;;24.00;81.90;;;;;;5016625;28;19925;-78
2022/09/11 13:19:41;;;;;;;;;;;24.00;81.80;;;;;;5016590;28;20296;-78
2022/09/11 13:22:20;;;;;;;;;;;24.00;81.70;;;;;;5020156;28;20024;-76
2022/09/11 13:24:47;;;;;;;;;;;24.00;81.60;;;;;;5019906;28;20031;-76
2022/09/11 13:27:17;;;;;;;;;;;24.00;81.50;;;;;;5019598;28;20037;-76
2022/09/11 13:29:48;;;;;;;;;;;24.00;81.40;;;;;;5019657;28;19952;-76
2022/09/11 13:32:16;;;;;;;;;;;24.00;81.30;;;;;;5019584;28;20475;-79
2022/09/11 13:34:43;;;;;;;;;;;24.00;81.20;;;;;;5020774;28;19932;-80
2022/09/11 13:37:12;;;;;;;;;;;24.00;81.00;;;;;;5019984;28;19989;-79
2022/09/11 13:39:40;;;;;;;;;;;24.00;80.90;;;;;;5020027;28;19925;-80
2022/09/11 13:42:11;;;;;;;;;;;24.00;80.70;;;;;;5020266;28;19933;-79
2022/09/11 13:44:40;;;;;;;;;;;24.00;80.50;;;;;;5019945;28;19948;-80
2022/09/11 13:47:15;;;;;;;;;;;24.10;80.40;;;;;;5021246;28;20341;-79
2022/09/11 13:49:43;;;;;;;;;;;24.00;80.20;;;;;;5021193;28;20360;-80
2022/09/11 13:52:11;;;;;;;;;;;24.00;79.90;;;;;;5022102;28;19925;-80
2022/09/11 13:54:41;;;;;;;;;;;24.00;79.70;;;;;;5019015;28;19952;-80
2022/09/11 13:57:15;;;;;;;;;;;24.00;79.60;;;;;;5022272;28;19925;-80
2022/09/11 13:59:46;;;;;;;;;;;24.00;79.50;;;;;;5023073;28;20440;-80
2022/09/11 14:02:24;;;;;;;;;;;24.00;79.30;;;;;;5023413;28;19971;-80
2022/09/11 14:04:54;;;;;;;;;;;24.00;79.10;;;;;;5023438;28;19957;-80
2022/09/11 14:07:22;;;;;;;;;;;24.00;78.90;;;;;;5023675;28;20028;-81
2022/09/11 14:09:50;;;;;;;;;;;24.00;78.80;;;;;;5023719;28;19933;-81
2022/09/11 14:12:19;;;;;;;;;;;24.00;79.30;;;;;;5023842;28;20024;-80
2022/09/11 14:14:49;;;;;;;;;;;24.00;78.40;;;;;;5023887;28;19925;-81
2022/09/11 14:17:17;;;;;;;;;;;24.00;78.10;;;;;;5024105;28;20012;-81
2022/09/11 14:19:45;;;;;;;;;;;24.00;78.00;;;;;;5023612;28;19926;-81
2022/09/11 14:22:21;;;;;;;;;;;24.00;78.00;;;;;;5023499;28;19932;-80
2022/09/11 14:24:54;;;;;;;;;;;23.90;77.90;;;;;;5023834;28;20029;-81
2022/09/11 14:27:35;;;;;;;;;;;24.00;78.00;;;;;;5024423;28;19932;-80
2022/09/11 14:30:02;;;;;;;;;;;23.90;77.90;;;;;;5024131;28;20500;-80
2022/09/11 14:32:30;;;;;;;;;;;23.90;77.80;;;;;;5024180;28;19933;-80
2022/09/11 14:34:57;;;;;;;;;;;24.00;77.80;;;;;;5024634;28;19925;-80
2022/09/11 14:37:25;;;;;;;;;;;23.90;77.40;;;;;;5025143;28;19925;-81
2022/09/11 14:39:55;;;;;;;;;;;23.90;77.30;;;;;;5026034;28;19985;-81
2022/09/11 14:42:23;;;;;;;;;;;23.90;77.30;;;;;;5026708;28;19932;-80
2022/09/11 14:44:50;;;;;;;;;;;23.90;77.20;;;;;;5025614;28;19976;-81
2022/09/11 14:47:17;;;;;;;;;;;23.90;77.00;;;;;;5025622;28;19925;-81
2022/09/11 14:49:44;;;;;;;;;;;23.90;77.00;;;;;;5026262;28;19925;-81
2022/09/11 14:52:13;;;;;;;;;;;23.90;76.90;;;;;;5025969;28;19930;-80
2022/09/11 14:54:41;;;;;;;;;;;23.90;76.80;;;;;;5023628;28;19932;-80
2022/09/11 14:57:11;;;;;;;;;;;23.90;76.70;;;;;;5020589;28;20380;-80
2022/09/11 14:59:37;;;;;;;;;;;23.90;76.60;;;;;;5018794;28;20357;-81
2022/09/11 15:02:04;;;;;;;;;;;23.90;76.50;;;;;;5018751;28;19961;-84
2022/09/11 15:04:31;;;;;;;;;;;23.90;76.50;;;;;;5015766;28;20012;-84
2022/09/11 15:06:58;;;;;;;;;;;23.90;76.40;;;;;;5014356;28;19972;-84
2022/09/11 15:09:25;;;;;;;;;;;23.90;76.40;;;;;;5015156;28;19930;-84
2022/09/11 15:11:53;;;;;;;;;;;23.90;76.30;;;;;;5014909;28;19981;-83
2022/09/11 15:14:20;;;;;;;;;;;23.90;76.30;;;;;;5015068;28;19925;-84
2022/09/11 15:16:47;;;;;;;;;;;23.90;76.20;;;;;;5014740;28;19925;-84
2022/09/11 15:19:14;;;;;;;;;;;23.90;76.20;;;;;;5015083;28;19965;-84
2022/09/11 15:21:41;;;;;;;;;;;23.90;76.10;;;;;;5014463;28;19929;-84
2022/09/11 15:24:08;;;;;;;;;;;23.90;76.00;;;;;;5014510;28;20338;-85
2022/09/11 15:26:36;;;;;;;;;;;23.90;76.00;;;;;;5014533;28;20368;-85
2022/09/11 15:29:08;;;;;;;;;;;23.90;76.00;;;;;;5014251;28;20049;-84
2022/09/11 15:31:35;;;;;;;;;;;23.90;75.90;;;;;;5014157;28;19933;-84
2022/09/11 15:34:05;;;;;;;;;;;23.80;75.80;;;;;;5014479;28;19925;-85
2022/09/11 15:36:32;;;;;;;;;;;23.80;75.70;;;;;;5014522;28;19976;-85
2022/09/11 15:38:59;;;;;;;;;;;23.90;75.80;;;;;;5014847;28;20016;-84
2022/09/11 15:41:26;;;;;;;;;;;23.90;75.70;;;;;;5016512;28;19929;-85
2022/09/11 15:43:53;;;;;;;;;;;23.90;75.70;;;;;;5014231;28;19947;-87
2022/09/11 15:46:23;;;;;;;;;;;23.80;75.60;;;;;;5014099;28;19972;-87
2022/09/11 15:48:50;;;;;;;;;;;23.80;75.60;;;;;;5014525;28;19926;-86
2022/09/11 15:51:18;;;;;;;;;;;23.80;75.70;;;;;;5014498;28;20021;-85
2022/09/11 15:53:45;;;;;;;;;;;23.90;75.90;;;;;;5013930;28;20012;-86
2022/09/11 15:56:14;;;;;;;;;;;23.80;75.80;;;;;;5014320;28;20356;-87
2022/09/11 15:58:41;;;;;;;;;;;23.80;75.80;;;;;;5014128;28;20392;-86
2022/09/11 16:01:16;;;;;;;;;;;23.90;76.00;;;;;;5014042;28;20021;-85
2022/09/11 16:03:44;;;;;;;;;;;23.90;76.00;;;;;;5014271;28;20441;-86
2022/09/11 16:06:11;;;;;;;;;;;23.90;76.00;;;;;;5013877;28;19925;-86
2022/09/11 16:08:38;;;;;;;;;;;23.90;76.10;;;;;;5014058;28;19925;-86
2022/09/11 16:11:05;;;;;;;;;;;23.90;76.10;;;;;;5014035;28;19987;-86
2022/09/11 16:13:32;;;;;;;;;;;23.90;76.20;;;;;;5016539;28;19975;-86
2022/09/11 16:16:02;;;;;;;;;;;23.90;76.20;;;;;;5018282;28;19925;-86
2022/09/11 16:18:29;;;;;;;;;;;23.90;76.30;;;;;;5017831;28;19933;-86
2022/09/11 16:20:58;;;;;;;;;;;23.90;76.30;;;;;;5017922;28;20023;-87
2022/09/11 16:23:25;;;;;;;;;;;23.90;76.40;;;;;;5017585;28;19926;-87
2022/09/11 16:25:51;;;;;;;;;;;23.90;76.40;;;;;;5017792;28;19926;-87
2022/09/11 16:28:18;;;;;;;;;;;23.90;77.10;;;;;;5017391;28;20019;-86
2022/09/11 16:30:45;;;;;;;;;;;23.90;76.40;;;;;;5017184;28;19925;-86
2022/09/11 16:33:12;;;;;;;;;;;23.90;76.30;;;;;;5017729;28;20350;-86
2022/09/11 16:35:39;;;;;;;;;;;23.90;76.30;;;;;;5017431;28;20357;-86
2022/09/11 16:38:07;;;;;;;;;;;23.90;76.20;;;;;;5017097;28;20455;-86
2022/09/11 16:40:35;;;;;;;;;;;23.90;76.20;;;;;;5017679;28;19933;-86
2022/09/11 16:43:02;;;;;;;;;;;23.80;76.10;;;;;;5017093;28;19925;-87
2022/09/11 16:45:28;;;;;;;;;;;23.80;76.10;;;;;;5017073;28;20397;-87
2022/09/11 16:47:56;;;;;;;;;;;23.90;76.10;;;;;;5017001;28;20389;-86
2022/09/11 16:50:23;;;;;;;;;;;23.90;76.10;;;;;;5017197;28;19925;-86
2022/09/11 16:52:50;;;;;;;;;;;23.80;76.10;;;;;;5017092;28;19932;-86
2022/09/11 16:55:19;;;;;;;;;;;23.80;76.30;;;;;;5016991;28;19925;-85
2022/09/11 16:57:46;;;;;;;;;;;23.90;76.50;;;;;;5016743;28;20513;-85
2022/09/11 17:00:14;;;;;;;;;;;23.90;76.60;;;;;;5018594;28;20404;-85
2022/09/11 17:02:40;;;;;;;;;;;23.90;76.80;;;;;;5019111;28;20024;-85
2022/09/11 17:05:07;;;;;;;;;;;23.90;76.90;;;;;;5019051;28;20016;-83
2022/09/11 17:07:34;;;;;;;;;;;23.90;77.00;;;;;;5019018;28;19926;-84
2022/09/11 17:10:01;;;;;;;;;;;23.90;77.10;;;;;;5019108;28;20021;-85
2022/09/11 17:12:29;;;;;;;;;;;23.90;77.20;;;;;;5020705;28;20024;-85
2022/09/11 17:14:56;;;;;;;;;;;23.90;77.30;;;;;;5021169;28;19993;-85
2022/09/11 17:17:22;;;;;;;;;;;23.90;77.40;;;;;;5021919;28;20012;-85
2022/09/11 17:19:50;;;;;;;;;;;23.90;77.50;;;;;;5018019;28;19932;-85
2022/09/11 17:22:16;;;;;;;;;;;23.90;77.80;;;;;;5019291;28;20016;-85
2022/09/11 17:24:43;;;;;;;;;;;23.90;77.80;;;;;;5018433;28;20025;-85
2022/09/11 17:27:10;;;;;;;;;;;23.90;77.80;;;;;;5017305;28;20024;-85
2022/09/11 17:29:38;;;;;;;;;;;23.90;77.90;;;;;;5017033;28;20392;-85
2022/09/11 17:32:04;;;;;;;;;;;23.90;77.90;;;;;;5017258;28;19996;-85
2022/09/11 17:34:31;;;;;;;;;;;23.80;77.80;;;;;;5018073;28;20016;-85
2022/09/11 17:36:58;;;;;;;;;;;23.80;77.80;;;;;;5019129;28;20443;-80
2022/09/11 17:39:24;;;;;;;;;;;23.90;77.90;;;;;;5019883;28;20361;-81
2022/09/11 17:41:51;;;;;;;;;;;23.80;77.80;;;;;;5021082;28;19960;-79
2022/09/11 17:44:18;;;;;;;;;;;23.80;77.80;;;;;;5020889;28;20008;-80
2022/09/11 17:46:46;;;;;;;;;;;23.90;78.10;;;;;;5022037;28;19925;-81
2022/09/11 17:49:12;;;;;;;;;;;23.80;78.10;;;;;;5021842;28;20020;-81
2022/09/11 17:51:39;;;;;;;;;;;23.80;78.30;;;;;;5022747;28;20028;-81
2022/09/11 17:54:06;;;;;;;;;;;23.90;78.60;;;;;;5021152;28;19960;-80
2022/09/11 17:56:32;;;;;;;;;;;23.80;78.70;;;;;;5020779;28;19926;-80
2022/09/11 17:59:00;;;;;;;;;;;23.90;79.00;;;;;;5021466;28;19932;-80
2022/09/11 18:01:27;;;;;;;;;;;23.90;79.10;;;;;;5020841;28;19959;-79
2022/09/11 18:03:56;;;;;;;;;;;23.90;79.20;;;;;;5020690;28;20028;-82
2022/09/11 18:06:24;;;;;;;;;;;23.90;79.40;;;;;;5019139;28;19979;-82
2022/09/11 18:08:53;;;;;;;;;;;23.90;79.50;;;;;;5018647;28;19976;-83
2022/09/11 18:11:19;;;;;;;;;;;23.90;80.40;;;;;;5018508;28;19952;-83
2022/09/11 18:13:46;;;;;;;;;;;23.90;79.80;;;;;;5018161;28;20396;-81
2022/09/11 18:16:13;;;;;;;;;;;23.90;79.80;;;;;;5017587;28;20357;-81
2022/09/11 18:18:39;;;;;;;;;;;23.90;79.90;;;;;;5017845;28;20351;-82
2022/09/11 18:21:09;;;;;;;;;;;23.90;80.00;;;;;;5017411;28;19936;-82
2022/09/11 18:23:36;;;;;;;;;;;23.90;80.20;;;;;;5017564;28;20365;-80
2022/09/11 18:26:03;;;;;;;;;;;23.90;80.30;;;;;;5017838;28;20020;-80
2022/09/11 18:28:30;;;;;;;;;;;23.90;80.40;;;;;;5017915;28;20411;-80
2022/09/11 18:31:00;;;;;;;;;;;23.90;80.50;;;;;;5017822;28;19929;-79
2022/09/11 18:33:26;;;;;;;;;;;23.90;80.70;;;;;;5018527;28;19929;-79
2022/09/11 18:35:53;;;;;;;;;;;23.90;80.70;;;;;;5018978;28;20016;-79
2022/09/11 18:38:24;;;;;;;;;;;23.90;80.80;;;;;;5018470;28;19925;-81
2022/09/11 18:40:54;;;;;;;;;;;23.90;80.90;;;;;;5017683;28;19975;-81
2022/09/11 18:43:21;;;;;;;;;;;23.90;81.00;;;;;;5017350;28;19932;-80
2022/09/11 18:45:48;;;;;;;;;;;23.90;81.10;;;;;;5018360;28;20351;-80
2022/09/11 18:48:15;;;;;;;;;;;23.90;81.20;;;;;;5018346;28;20383;-80
2022/09/11 18:50:42;;;;;;;;;;;23.90;81.30;;;;;;5019088;28;19964;-79
2022/09/11 18:53:09;;;;;;;;;;;23.90;81.50;;;;;;5018684;28;19951;-79
2022/09/11 18:55:37;;;;;;;;;;;23.90;81.70;;;;;;5018945;28;20353;-79
2022/09/11 18:58:04;;;;;;;;;;;23.90;81.80;;;;;;5019098;28;19932;-79
2022/09/11 19:00:31;;;;;;;;;;;23.90;82.00;;;;;;5018633;28;20388;-79
2022/09/11 19:02:58;;;;;;;;;;;23.90;82.00;;;;;;5018323;28;19926;-79
2022/09/11 19:05:25;;;;;;;;;;;23.90;82.10;;;;;;5018435;28;19932;-79
2022/09/11 19:07:57;;;;;;;;;;;23.90;82.20;;;;;;5016766;28;20409;-79
2022/09/11 19:10:24;;;;;;;;;;;23.90;82.20;;;;;;5018970;28;20397;-79
2022/09/11 19:12:53;;;;;;;;;;;23.90;82.40;;;;;;5019081;28;19993;-78
2022/09/11 19:15:19;;;;;;;;;;;23.90;82.40;;;;;;5019055;28;20332;-78
2022/09/11 19:17:46;;;;;;;;;;;23.90;82.50;;;;;;5018322;28;20296;-79
2022/09/11 19:20:12;;;;;;;;;;;23.90;82.60;;;;;;5018122;28;20370;-79
2022/09/11 19:22:39;;;;;;;;;;;23.90;82.60;;;;;;5017305;28;20362;-79
2022/09/11 19:25:08;;;;;;;;;;;23.90;82.70;;;;;;5017914;28;20360;-79
2022/09/11 19:27:36;;;;;;;;;;;23.90;82.80;;;;;;5018075;28;19926;-79
2022/09/11 19:30:05;;;;;;;;;;;23.90;82.90;;;;;;5017621;28;19926;-79
2022/09/11 19:32:32;;;;;;;;;;;23.90;83.00;;;;;;5017816;28;19925;-79
2022/09/11 19:34:59;;;;;;;;;;;23.80;82.90;;;;;;5018023;28;19932;-79
2022/09/11 19:37:26;;;;;;;;;;;23.90;83.00;;;;;;5018182;28;19926;-79
2022/09/11 19:39:52;;;;;;;;;;;23.80;83.00;;;;;;5017554;28;19976;-79
2022/09/11 19:42:19;;;;;;;;;;;23.80;83.10;;;;;;5018428;28;19925;-78
2022/09/11 19:44:46;;;;;;;;;;;23.90;83.30;;;;;;5017606;28;19925;-79
2022/09/11 19:47:15;;;;;;;;;;;23.80;83.20;;;;;;5017883;28;20369;-81
2022/09/11 19:49:41;;;;;;;;;;;23.80;83.30;;;;;;5021436;28;19925;-78
2022/09/11 19:52:09;;;;;;;;;;;23.80;83.60;;;;;;5018291;28;20008;-78
2022/09/11 19:54:36;;;;;;;;;;;23.80;83.60;;;;;;5018188;28;19975;-78
2022/09/11 19:57:03;;;;;;;;;;;23.80;83.60;;;;;;5019239;28;19925;-78
2022/09/11 19:59:31;;;;;;;;;;;23.80;83.60;;;;;;5018096;28;19931;-78
2022/09/11 20:01:58;;;;;;;;;;;23.80;83.60;;;;;;5017570;28;19930;-78
2022/09/11 20:04:26;;;;;;;;;;;23.80;83.60;;;;;;5017584;28;20392;-78
2022/09/11 20:06:52;;;;;;;;;;;23.80;83.60;;;;;;5018041;28;19931;-78
2022/09/11 20:09:19;;;;;;;;;;;23.80;83.60;;;;;;5017883;28;19925;-78
2022/09/11 20:11:46;;;;;;;;;;;23.80;83.60;;;;;;5017854;28;19926;-76
2022/09/11 20:14:12;;;;;;;;;;;23.80;83.60;;;;;;5017397;28;19932;-75
2022/09/11 20:16:39;;;;;;;;;;;23.80;83.60;;;;;;5017296;28;19925;-75
2022/09/11 20:19:08;;;;;;;;;;;23.80;83.80;;;;;;5017625;28;19932;-75
2022/09/11 20:21:36;;;;;;;;;;;23.80;84.60;;;;;;5017508;28;20015;-76
2022/09/11 20:24:03;;;;;;;;;;;23.80;84.10;;;;;;5017160;28;20383;-76
2022/09/11 20:26:31;;;;;;;;;;;23.80;84.20;;;;;;5017458;28;19965;-76
2022/09/11 20:28:58;;;;;;;;;;;23.80;84.30;;;;;;5019924;28;19953;-79
2022/09/11 20:31:26;;;;;;;;;;;23.80;84.40;;;;;;5017403;28;19932;-76
2022/09/11 20:33:53;;;;;;;;;;;23.80;84.50;;;;;;5017337;28;19925;-76
2022/09/11 20:36:20;;;;;;;;;;;23.80;84.60;;;;;;5017269;28;20296;-76
2022/09/11 20:38:51;;;;;;;;;;;23.80;84.70;;;;;;5017170;28;20020;-76
2022/09/11 20:41:18;;;;;;;;;;;23.80;84.80;;;;;;5017206;28;20041;-76
2022/09/11 20:43:44;;;;;;;;;;;23.80;84.90;;;;;;5016803;28;20028;-76
2022/09/11 20:46:11;;;;;;;;;;;23.80;85.00;;;;;;5016821;28;20028;-76
2022/09/11 20:48:38;;;;;;;;;;;23.80;85.10;;;;;;5016754;28;19935;-76
2022/09/11 20:51:05;;;;;;;;;;;23.80;85.20;;;;;;5016731;28;20025;-76